createdAt,value
2015-10-24T00:00:11.752Z,83.5
2015-10-24T00:01:11.708Z,83.4
2015-10-24T00:02:11.647Z,83.5
2015-10-24T00:03:11.588Z,83.3
2015-10-24T00:04:11.560Z,84.4
2015-10-24T00:05:11.483Z,85.6
2015-10-24T00:06:11.424Z,85.5
2015-10-24T00:07:11.380Z,84.8
2015-10-24T00:08:11.321Z,85.1
2015-10-24T00:09:11.260Z,84.8
2015-10-24T00:10:11.202Z,83.9
2015-10-24T00:11:11.157Z,83.4
2015-10-24T00:12:11.096Z,84.4
2015-10-24T00:13:11.037Z,84.4
2015-10-24T00:14:10.974Z,84.4
2015-10-24T00:15:10.946Z,84.6
2015-10-24T00:16:10.871Z,85.3
2015-10-24T00:17:10.811Z,85.3
2015-10-24T00:18:10.751Z,85.3
2015-10-24T00:19:10.707Z,85.5
2015-10-24T00:20:10.647Z,85.4
2015-10-24T00:21:10.822Z,85
2015-10-24T00:22:10.543Z,84.8
2015-10-24T00:23:10.484Z,85.7
2015-10-24T00:24:10.424Z,84
2015-10-24T00:25:10.364Z,84.5
2015-10-24T00:26:10.320Z,84.6
2015-10-24T00:27:10.276Z,84.4
2015-10-24T00:28:10.200Z,85.1
2015-10-24T00:29:10.156Z,84.6
2015-10-24T00:30:10.315Z,84.5
2015-10-24T00:31:10.036Z,84.4
2015-10-24T00:32:09.980Z,84.2
2015-10-24T00:33:09.921Z,85.2
2015-10-24T00:34:09.861Z,85.8
2015-10-24T00:35:09.816Z,84.8
2015-10-24T00:36:09.757Z,84.1
2015-10-24T00:37:09.697Z,84
2015-10-24T00:38:09.638Z,84
2015-10-24T00:39:09.577Z,84.9
2015-10-24T00:40:09.533Z,84.1
2015-10-24T00:41:09.473Z,84.4
2015-10-24T00:42:09.413Z,85.4
2015-10-24T00:43:09.354Z,85.4
2015-10-24T00:44:09.294Z,85.5
2015-10-24T00:45:09.250Z,86.9
2015-10-24T00:46:09.206Z,85.9
2015-10-24T00:47:09.130Z,85.2
2015-10-24T00:48:09.087Z,85.8
2015-10-24T00:49:09.026Z,86.3
2015-10-24T00:50:08.967Z,87.2
2015-10-24T00:51:08.907Z,87.6
2015-10-24T00:52:08.862Z,87.2
2015-10-24T00:53:08.803Z,86.5
2015-10-24T00:54:08.743Z,86.8
2015-10-24T00:55:08.683Z,87.6
2015-10-24T00:56:08.623Z,88
2015-10-24T00:57:08.580Z,87.9
2015-10-24T00:58:08.520Z,85.9
2015-10-24T00:59:08.476Z,85.3
2015-10-24T01:00:08.417Z,84.9
2015-10-24T01:01:08.355Z,85.2
2015-10-24T01:02:08.296Z,85.6
2015-10-24T01:03:08.252Z,86.7
2015-10-24T01:04:08.177Z,86.9
2015-10-24T01:05:08.133Z,87
2015-10-24T01:06:08.307Z,86.4
2015-10-24T01:07:08.014Z,85.9
2015-10-24T01:08:07.954Z,85.3
2015-10-24T01:09:07.909Z,85.5
2015-10-24T01:10:07.850Z,85.1
2015-10-24T01:11:07.789Z,85.5
2015-10-24T01:12:07.760Z,85.9
2015-10-24T01:13:07.686Z,86.5
2015-10-24T01:14:07.625Z,87
2015-10-24T01:15:07.582Z,87.5
2015-10-24T01:16:07.553Z,87.4
2015-10-24T01:17:07.463Z,87.5
2015-10-24T01:18:07.419Z,87.8
2015-10-24T01:19:07.343Z,87.8
2015-10-24T01:20:07.299Z,86.9
2015-10-24T01:21:07.223Z,87
2015-10-24T01:22:06.445Z,86.8
2015-10-24T01:23:07.119Z,86.8
2015-10-24T01:24:07.060Z,86.1
2015-10-24T01:25:07.000Z,85.2
2015-10-24T01:26:06.955Z,85.6
2015-10-24T01:27:06.896Z,85.7
2015-10-24T01:28:07.071Z,85.1
2015-10-24T01:29:06.777Z,85.5
2015-10-24T01:30:06.732Z,86.9
2015-10-24T01:31:06.657Z,87.6
2015-10-24T01:32:06.613Z,87.9
2015-10-24T01:33:06.552Z,87.7
2015-10-24T01:34:06.509Z,87.8
2015-10-24T01:35:06.446Z,87.5
2015-10-24T01:36:06.418Z,87.5
2015-10-24T01:37:06.326Z,88
2015-10-24T01:38:06.267Z,87.5
2015-10-24T01:39:06.223Z,88
2015-10-24T01:40:06.163Z,88.4
2015-10-24T01:41:06.104Z,88
2015-10-24T01:42:06.043Z,88.3
2015-10-24T01:43:05.984Z,88.3
2015-10-24T01:44:05.955Z,88.1
2015-10-24T01:45:05.879Z,87.9
2015-10-24T01:46:05.820Z,87.7
2015-10-24T01:47:05.760Z,87.1
2015-10-24T01:48:05.716Z,87.6
2015-10-24T01:49:05.656Z,87.1
2015-10-24T01:50:05.596Z,87.1
2015-10-24T01:51:05.553Z,87.2
2015-10-24T01:52:05.492Z,86.5
2015-10-24T01:53:05.433Z,87.4
2015-10-24T01:54:05.373Z,87.8
2015-10-24T01:55:05.328Z,87.9
2015-10-24T01:56:05.270Z,87.7
2015-10-24T01:57:05.244Z,87
2015-10-24T01:58:05.154Z,86.6
2015-10-24T01:59:05.109Z,86.5
2015-10-24T02:00:05.035Z,85.9
2015-10-24T02:01:04.990Z,85.4
2015-10-24T02:02:04.930Z,86
2015-10-24T02:03:04.871Z,86.2
2015-10-24T02:04:04.810Z,85.6
2015-10-24T02:05:04.766Z,85
2015-10-24T02:06:04.721Z,86.2
2015-10-24T02:07:04.646Z,87.1
2015-10-24T02:08:04.587Z,86.7
2015-10-24T02:09:04.543Z,86.2
2015-10-24T02:10:04.483Z,85.8
2015-10-24T02:11:04.423Z,85.2
2015-10-24T02:12:04.363Z,86
2015-10-24T02:13:04.303Z,85.7
2015-10-24T02:14:04.259Z,85
2015-10-24T02:15:04.200Z,84.6
2015-10-24T02:16:04.140Z,83.6
2015-10-24T02:17:04.081Z,84.6
2015-10-24T02:18:04.021Z,84.6
2015-10-24T02:19:03.976Z,85.5
2015-10-24T02:20:03.917Z,85.1
2015-10-24T02:21:03.856Z,85.2
2015-10-24T02:22:03.813Z,86.4
2015-10-24T02:23:03.753Z,85.7
2015-10-24T02:24:03.692Z,84.8
2015-10-24T02:25:03.633Z,85.5
2015-10-24T02:26:03.589Z,86.1
2015-10-24T02:27:03.545Z,86.4
2015-10-24T02:28:03.470Z,86.4
2015-10-24T02:29:03.410Z,86.1
2015-10-24T02:30:03.367Z,85.4
2015-10-24T02:31:03.290Z,85.3
2015-10-24T02:32:03.247Z,84.5
2015-10-24T02:33:03.186Z,85.1
2015-10-24T02:34:03.127Z,85.8
2015-10-24T02:35:03.067Z,86.9
2015-10-24T02:36:03.023Z,87.2
2015-10-24T02:37:02.976Z,86.8
2015-10-24T02:38:03.138Z,86.3
2015-10-24T02:39:02.841Z,87.2
2015-10-24T02:40:02.797Z,86.1
2015-10-24T02:41:02.971Z,85.4
2015-10-24T02:42:02.677Z,85.8
2015-10-24T02:43:02.632Z,85.7
2015-10-24T02:44:02.557Z,85.7
2015-10-24T02:45:02.497Z,85.8
2015-10-24T02:46:02.453Z,86.1
2015-10-24T02:47:02.393Z,87
2015-10-24T02:48:02.349Z,87.6
2015-10-24T02:49:02.290Z,87.8
2015-10-24T02:50:02.229Z,87.6
2015-10-24T02:51:02.170Z,88.3
2015-10-24T02:52:02.110Z,88.5
2015-10-24T02:53:02.051Z,88.7
2015-10-24T02:54:02.007Z,87.9
2015-10-24T02:55:01.947Z,86.4
2015-10-24T02:56:01.887Z,87.3
2015-10-24T02:57:01.827Z,87.2
2015-10-24T02:58:01.773Z,87
2015-10-24T02:59:01.713Z,86.3
2015-10-24T03:00:01.653Z,86.8
2015-10-24T03:01:01.593Z,87
2015-10-24T03:02:01.549Z,87.9
2015-10-24T03:03:01.489Z,87.3
2015-10-24T03:04:01.429Z,86.8
2015-10-24T03:05:01.369Z,88.2
2015-10-24T03:06:01.326Z,88.8
2015-10-24T03:07:01.265Z,88.6
2015-10-24T03:08:00.472Z,88.5
2015-10-24T03:09:01.145Z,88.7
2015-10-24T03:10:01.086Z,88
2015-10-24T03:11:01.026Z,87.3
2015-10-24T03:12:00.983Z,87.5
2015-10-24T03:13:00.923Z,88
2015-10-24T03:14:00.863Z,88.7
2015-10-24T03:15:00.803Z,88.9
2015-10-24T03:16:00.774Z,88.9
2015-10-24T03:16:59.871Z,88.6
2015-10-24T03:18:00.639Z,88
2015-10-24T03:19:00.594Z,87.2
2015-10-24T03:20:00.551Z,87.2
2015-10-24T03:21:00.460Z,87.5
2015-10-24T03:22:00.416Z,88.2
2015-10-24T03:23:00.355Z,88.2
2015-10-24T03:24:00.297Z,87.2
2015-10-24T03:25:00.284Z,87.3
2015-10-24T03:26:00.192Z,88.7
2015-10-24T03:27:00.149Z,88.5
2015-10-24T03:28:00.307Z,87.6
2015-10-24T03:29:00.029Z,87.1
2015-10-24T03:29:59.953Z,87.2
2015-10-24T03:30:59.910Z,87.9
2015-10-24T03:31:59.849Z,86.9
2015-10-24T03:32:59.805Z,87
2015-10-24T03:33:59.730Z,88
2015-10-24T03:34:59.685Z,88.8
2015-10-24T03:35:59.626Z,89.1
2015-10-24T03:36:59.566Z,88.6
2015-10-24T03:37:59.506Z,87.5
2015-10-24T03:38:59.462Z,87.6
2015-10-24T03:39:59.387Z,88.1
2015-10-24T03:40:59.577Z,88
2015-10-24T03:41:59.282Z,88.1
2015-10-24T03:42:59.223Z,88.3
2015-10-24T03:43:59.163Z,88.2
2015-10-24T03:44:59.118Z,88.1
2015-10-24T03:45:59.056Z,86.8
2015-10-24T03:46:59.012Z,86.8
2015-10-24T03:47:58.953Z,87
2015-10-24T03:48:58.893Z,85.9
2015-10-24T03:49:58.833Z,86.4
2015-10-24T03:50:58.773Z,87.4
2015-10-24T03:51:58.729Z,88
2015-10-24T03:52:58.654Z,88.2
2015-10-24T03:53:58.594Z,87.8
2015-10-24T03:54:58.550Z,87.5
2015-10-24T03:55:58.490Z,87.3
2015-10-24T03:56:58.430Z,86.9
2015-10-24T03:57:58.370Z,86.8
2015-10-24T03:58:58.326Z,86.1
2015-10-24T03:59:58.251Z,84.7
2015-10-24T04:00:58.206Z,85.3
2015-10-24T04:01:58.147Z,86.3
2015-10-24T04:02:58.119Z,87.3
2015-10-24T04:03:58.042Z,87.7
2015-10-24T04:04:57.983Z,88.3
2015-10-24T04:05:57.923Z,87.4
2015-10-24T04:06:57.864Z,86.5
2015-10-24T04:07:57.819Z,86.5
2015-10-24T04:08:57.760Z,86.9
2015-10-24T04:09:57.700Z,86.7
2015-10-24T04:10:57.656Z,85.9
2015-10-24T04:11:57.596Z,85.9
2015-10-24T04:12:57.536Z,85.5
2015-10-24T04:13:57.477Z,86.2
2015-10-24T04:14:57.416Z,87.1
2015-10-24T04:15:57.358Z,89
2015-10-24T04:16:57.297Z,89.3
2015-10-24T04:17:57.300Z,90
2015-10-24T04:18:57.194Z,90.1
2015-10-24T04:19:57.134Z,89.6
2015-10-24T04:20:57.074Z,89.1
2015-10-24T04:21:57.014Z,88.8
2015-10-24T04:22:56.969Z,87.4
2015-10-24T04:23:56.910Z,87.7
2015-10-24T04:24:56.850Z,87.4
2015-10-24T04:25:57.025Z,86.7
2015-10-24T04:26:56.746Z,86.8
2015-10-24T04:27:56.671Z,86.7
2015-10-24T04:28:56.627Z,86.8
2015-10-24T04:29:56.568Z,85.9
2015-10-24T04:30:56.524Z,86.6
2015-10-24T04:31:56.448Z,86.4
2015-10-24T04:32:56.638Z,86.7
2015-10-24T04:33:56.329Z,87.9
2015-10-24T04:34:56.284Z,89
2015-10-24T04:35:56.459Z,88.7
2015-10-24T04:36:56.415Z,88.1
2015-10-24T04:37:56.104Z,89.4
2015-10-24T04:38:56.060Z,89.1
2015-10-24T04:39:56.002Z,88.6
2015-10-24T04:40:55.941Z,88
2015-10-24T04:41:56.115Z,87
2015-10-24T04:42:55.837Z,86.8
2015-10-24T04:43:55.762Z,87.5
2015-10-24T04:44:55.717Z,88.9
2015-10-24T04:45:55.674Z,89.4
2015-10-24T04:46:55.614Z,89.2
2015-10-24T04:47:55.537Z,88.5
2015-10-24T04:48:55.478Z,88.1
2015-10-24T04:49:55.434Z,87.6
2015-10-24T04:50:55.375Z,87.3
2015-10-24T04:51:55.312Z,86.7
2015-10-24T04:52:55.252Z,87
2015-10-24T04:53:55.224Z,87.8
2015-10-24T04:54:55.148Z,88.1
2015-10-24T04:55:55.103Z,88
2015-10-24T04:56:55.075Z,88.2
2015-10-24T04:57:54.990Z,88.5
2015-10-24T04:58:54.931Z,89.1
2015-10-24T04:59:54.871Z,88.9
2015-10-24T05:00:54.826Z,88.3
2015-10-24T05:01:54.751Z,88
2015-10-24T05:02:54.692Z,88.2
2015-10-24T05:03:54.648Z,88.8
2015-10-24T05:04:54.587Z,87.6
2015-10-24T05:05:54.528Z,87.1
2015-10-24T05:06:54.468Z,86.1
2015-10-24T05:07:54.424Z,86.2
2015-10-24T05:08:54.365Z,87.3
2015-10-24T05:09:54.289Z,86.4
2015-10-24T05:10:54.244Z,86.5
2015-10-24T05:11:54.200Z,86.6
2015-10-24T05:12:54.125Z,87
2015-10-24T05:13:54.065Z,87.2
2015-10-24T05:14:54.021Z,86.6
2015-10-24T05:15:53.946Z,87.3
2015-10-24T05:16:54.136Z,87.7
2015-10-24T05:17:53.826Z,88.1
2015-10-24T05:18:53.798Z,87.7
2015-10-24T05:19:53.722Z,87.4
2015-10-24T05:20:52.928Z,86.7
2015-10-24T05:21:53.619Z,86.6
2015-10-24T05:22:53.558Z,87.5
2015-10-24T05:23:53.500Z,88.3
2015-10-24T05:24:53.455Z,89.4
2015-10-24T05:25:53.380Z,88.3
2015-10-24T05:26:53.336Z,87.9
2015-10-24T05:27:53.276Z,87.9
2015-10-24T05:28:53.216Z,88.5
2015-10-24T05:29:53.156Z,89.5
2015-10-24T05:30:53.111Z,89.2
2015-10-24T05:31:53.052Z,88.3
2015-10-24T05:32:52.992Z,87.7
2015-10-24T05:33:53.167Z,87.2
2015-10-24T05:34:52.872Z,87.4
2015-10-24T05:35:52.828Z,87.1
2015-10-24T05:36:52.769Z,87.1
2015-10-24T05:37:52.709Z,87.7
2015-10-24T05:38:52.649Z,87.5
2015-10-24T05:39:52.589Z,88.1
2015-10-24T05:40:52.529Z,88
2015-10-24T05:41:52.485Z,86.6
2015-10-24T05:42:52.269Z,86.7
2015-10-24T05:43:52.366Z,87.8
2015-10-24T05:44:52.306Z,87.8
2015-10-24T05:45:52.246Z,87.1
2015-10-24T05:46:52.187Z,87.6
2015-10-24T05:47:52.127Z,87.2
2015-10-24T05:48:52.083Z,87.5
2015-10-24T05:49:52.023Z,87.2
2015-10-24T05:50:51.963Z,87.5
2015-10-24T05:51:51.904Z,87.1
2015-10-24T05:52:51.844Z,87.6
2015-10-24T05:53:51.800Z,88.3
2015-10-24T05:54:51.740Z,87.5
2015-10-24T05:55:51.680Z,87.4
2015-10-24T05:56:51.618Z,87.2
2015-10-24T05:57:51.558Z,87.4
2015-10-24T05:58:51.498Z,88.5
2015-10-24T05:59:51.438Z,89
2015-10-24T06:00:51.409Z,89.8
2015-10-24T06:01:51.334Z,89.4
2015-10-24T06:02:51.274Z,89.4
2015-10-24T06:03:51.230Z,88.8
2015-10-24T06:04:51.170Z,88.1
2015-10-24T06:05:51.111Z,86.6
2015-10-24T06:06:51.051Z,87.3
2015-10-24T06:07:50.991Z,86.9
2015-10-24T06:08:50.931Z,87.4
2015-10-24T06:09:50.872Z,88.1
2015-10-24T06:10:50.828Z,87.5
2015-10-24T06:11:50.753Z,87.8
2015-10-24T06:12:50.723Z,86.7
2015-10-24T06:13:50.664Z,86.8
2015-10-24T06:14:50.588Z,86.8
2015-10-24T06:15:50.528Z,85.8
2015-10-24T06:16:50.469Z,86.2
2015-10-24T06:17:50.456Z,86.7
2015-10-24T06:18:50.600Z,86.9
2015-10-24T06:19:50.305Z,86.9
2015-10-24T06:20:50.245Z,86.4
2015-10-24T06:21:50.201Z,86.9
2015-10-24T06:22:50.142Z,86.9
2015-10-24T06:23:50.066Z,87.3
2015-10-24T06:24:50.022Z,87.3
2015-10-24T06:25:49.957Z,88.1
2015-10-24T06:26:50.137Z,87.8
2015-10-24T06:27:49.831Z,88
2015-10-24T06:28:49.776Z,87.1
2015-10-24T06:29:49.689Z,87.6
2015-10-24T06:30:49.622Z,87.7
2015-10-24T06:31:49.557Z,87.1
2015-10-24T06:32:49.510Z,86.6
2015-10-24T06:33:49.430Z,86.4
2015-10-24T06:34:49.398Z,86.9
2015-10-24T06:35:49.320Z,86.1
2015-10-24T06:36:49.274Z,86.8
2015-10-24T06:37:49.073Z,87.9
2015-10-24T06:38:49.167Z,87.7
2015-10-24T06:39:48.934Z,87.7
2015-10-24T06:40:49.030Z,87.6
2015-10-24T06:41:48.986Z,86.9
2015-10-24T06:42:48.924Z,87.1
2015-10-24T06:43:48.896Z,87
2015-10-24T06:44:48.805Z,87.6
2015-10-24T06:45:48.760Z,86.8
2015-10-24T06:46:48.700Z,86.1
2015-10-24T06:47:48.640Z,85.6
2015-10-24T06:48:48.596Z,84.5
2015-10-24T06:49:48.535Z,84.9
2015-10-24T06:50:48.476Z,85.3
2015-10-24T06:51:48.415Z,85.8
2015-10-24T06:52:48.371Z,85.6
2015-10-24T06:53:48.312Z,85.5
2015-10-24T06:54:48.251Z,85.5
2015-10-24T06:55:48.443Z,85.9
2015-10-24T06:56:48.146Z,85.7
2015-10-24T06:57:48.085Z,84.9
2015-10-24T06:58:48.026Z,85.5
2015-10-24T06:59:47.982Z,84.8
2015-10-24T07:00:47.922Z,86
2015-10-24T07:01:47.862Z,85
2015-10-24T07:02:47.803Z,85.3
2015-10-24T07:03:47.992Z,85.2
2015-10-24T07:04:47.933Z,84.4
2015-10-24T07:05:47.639Z,83.4
2015-10-24T07:06:47.595Z,82.9
2015-10-24T07:07:47.520Z,83
2015-10-24T07:08:47.475Z,83.5
2015-10-24T07:09:47.414Z,82.6
2015-10-24T07:10:47.370Z,82.6
2015-10-24T07:11:47.311Z,83
2015-10-24T07:12:47.250Z,83.2
2015-10-24T07:13:47.207Z,83
2015-10-24T07:14:47.147Z,83.7
2015-10-24T07:15:47.088Z,83.7
2015-10-24T07:16:47.044Z,84.2
2015-10-24T07:17:46.984Z,84.5
2015-10-24T07:18:46.924Z,84.5
2015-10-24T07:19:46.880Z,84.6
2015-10-24T07:20:46.820Z,84.5
2015-10-24T07:21:46.775Z,84.6
2015-10-24T07:22:46.998Z,85.5
2015-10-24T07:23:46.672Z,85.7
2015-10-24T07:24:46.613Z,85.7
2015-10-24T07:25:46.552Z,85.5
2015-10-24T07:26:46.493Z,85.1
2015-10-24T07:27:46.433Z,85.1
2015-10-24T07:28:46.388Z,84.3
2015-10-24T07:29:46.344Z,84.5
2015-10-24T07:30:46.285Z,84.4
2015-10-24T07:31:46.225Z,84.8
2015-10-24T07:32:46.180Z,84.2
2015-10-24T07:33:46.121Z,83.8
2015-10-24T07:34:46.060Z,84.4
2015-10-24T07:35:46.002Z,84.6
2015-10-24T07:36:45.957Z,84.8
2015-10-24T07:37:45.898Z,84.5
2015-10-24T07:38:46.071Z,84.6
2015-10-24T07:39:45.794Z,85.1
2015-10-24T07:40:45.734Z,85.1
2015-10-24T07:41:45.690Z,86.1
2015-10-24T07:42:45.630Z,85.3
2015-10-24T07:43:45.571Z,85.3
2015-10-24T07:44:45.526Z,84.7
2015-10-24T07:45:45.466Z,84.8
2015-10-24T07:46:45.407Z,85.3
2015-10-24T07:47:44.613Z,86.3
2015-10-24T07:48:45.303Z,86
2015-10-24T07:49:45.242Z,85.9
2015-10-24T07:50:45.198Z,85.1
2015-10-24T07:51:45.139Z,84.6
2015-10-24T07:52:45.110Z,85
2015-10-24T07:53:45.034Z,85.2
2015-10-24T07:54:44.975Z,85.2
2015-10-24T07:55:44.931Z,84.8
2015-10-24T07:56:44.871Z,84.3
2015-10-24T07:57:45.052Z,84.3
2015-10-24T07:58:44.757Z,84.5
2015-10-24T07:59:44.698Z,85.5
2015-10-24T08:00:44.654Z,85.7
2015-10-24T08:01:44.594Z,85.8
2015-10-24T08:02:44.532Z,86.2
2015-10-24T08:03:44.503Z,86
2015-10-24T08:04:44.428Z,86.1
2015-10-24T08:05:44.384Z,86.4
2015-10-24T08:06:44.324Z,85.5
2015-10-24T08:07:44.498Z,85.9
2015-10-24T08:08:44.204Z,85.6
2015-10-24T08:09:44.144Z,86.1
2015-10-24T08:10:44.100Z,86.2
2015-10-24T08:11:44.039Z,85.3
2015-10-24T08:12:44.214Z,86
2015-10-24T08:13:43.780Z,86.2
2015-10-24T08:14:43.876Z,86.7
2015-10-24T08:15:43.833Z,85.7
2015-10-24T08:16:43.773Z,85.9
2015-10-24T08:17:43.713Z,85.9
2015-10-24T08:18:43.653Z,85.7
2015-10-24T08:19:43.843Z,85.6
2015-10-24T08:20:43.564Z,85.4
2015-10-24T08:21:43.505Z,86.2
2015-10-24T08:22:43.444Z,85.7
2015-10-24T08:23:43.400Z,85.9
2015-10-24T08:24:43.342Z,85.9
2015-10-24T08:25:43.297Z,85.6
2015-10-24T08:26:43.238Z,85.5
2015-10-24T08:27:43.178Z,86.2
2015-10-24T08:28:43.133Z,84.2
2015-10-24T08:29:43.074Z,84.1
2015-10-24T08:30:43.013Z,84.2
2015-10-24T08:31:42.969Z,84.8
2015-10-24T08:32:42.910Z,84.3
2015-10-24T08:33:42.850Z,84.8
2015-10-24T08:34:42.791Z,84.8
2015-10-24T08:35:42.730Z,84.7
2015-10-24T08:36:42.686Z,84.6
2015-10-24T08:37:42.626Z,84.9
2015-10-24T08:38:42.567Z,85
2015-10-24T08:39:42.524Z,84.6
2015-10-24T08:40:42.479Z,84.6
2015-10-24T08:41:42.404Z,84.8
2015-10-24T08:42:42.360Z,84.2
2015-10-24T08:43:42.299Z,84.6
2015-10-24T08:44:42.240Z,84.8
2015-10-24T08:45:42.179Z,84.8
2015-10-24T08:46:42.121Z,84.6
2015-10-24T08:47:42.092Z,85
2015-10-24T08:48:42.032Z,84.5
2015-10-24T08:49:41.972Z,84
2015-10-24T08:50:41.912Z,84.4
2015-10-24T08:51:41.868Z,84.6
2015-10-24T08:52:41.809Z,84.2
2015-10-24T08:53:41.982Z,84.1
2015-10-24T08:54:41.689Z,84
2015-10-24T08:55:41.645Z,83.8
2015-10-24T08:56:41.585Z,83.4
2015-10-24T08:57:41.540Z,83
2015-10-24T08:58:41.481Z,82.5
2015-10-24T08:59:41.421Z,82.5
2015-10-24T09:00:41.377Z,81.8
2015-10-24T09:01:41.334Z,82.1
2015-10-24T09:02:41.257Z,81.9
2015-10-24T09:03:41.214Z,82.2
2015-10-24T09:04:41.154Z,82
2015-10-24T09:05:41.109Z,82.7
2015-10-24T09:06:41.050Z,83.2
2015-10-24T09:07:40.990Z,83.5
2015-10-24T09:08:40.931Z,83.9
2015-10-24T09:09:40.886Z,82.6
2015-10-24T09:10:40.826Z,83.1
2015-10-24T09:11:40.764Z,83.6
2015-10-24T09:12:40.720Z,83.9
2015-10-24T09:13:40.660Z,84
2015-10-24T09:14:40.833Z,83.1
2015-10-24T09:15:40.556Z,83.4
2015-10-24T09:16:40.511Z,82.1
2015-10-24T09:17:40.452Z,82.9
2015-10-24T09:18:40.626Z,82.2
2015-10-24T09:19:40.347Z,82.5
2015-10-24T09:20:40.303Z,83.2
2015-10-24T09:21:40.228Z,83.6
2015-10-24T09:22:40.169Z,83.2
2015-10-24T09:23:40.109Z,84
2015-10-24T09:24:40.064Z,83.7
2015-10-24T09:25:40.239Z,83.9
2015-10-24T09:26:39.945Z,83.5
2015-10-24T09:27:39.902Z,83.5
2015-10-24T09:28:39.841Z,83.7
2015-10-24T09:29:39.781Z,83.8
2015-10-24T09:30:39.753Z,83.5
2015-10-24T09:31:39.694Z,83.6
2015-10-24T09:32:39.632Z,83.9
2015-10-24T09:33:39.574Z,84.2
2015-10-24T09:34:39.529Z,84.5
2015-10-24T09:35:39.469Z,84.3
2015-10-24T09:36:39.410Z,84.6
2015-10-24T09:37:39.600Z,84.6
2015-10-24T09:38:39.307Z,83.7
2015-10-24T09:39:39.246Z,83.6
2015-10-24T09:40:39.187Z,84
2015-10-24T09:41:39.143Z,83.7
2015-10-24T09:42:39.083Z,83.4
2015-10-24T09:43:39.038Z,84.1
2015-10-24T09:44:38.979Z,84.1
2015-10-24T09:45:38.935Z,83.8
2015-10-24T09:46:38.874Z,83.4
2015-10-24T09:47:38.831Z,83.6
2015-10-24T09:48:38.771Z,84
2015-10-24T09:49:38.711Z,83.5
2015-10-24T09:50:38.652Z,83.8
2015-10-24T09:51:38.607Z,83.4
2015-10-24T09:52:38.548Z,83.8
2015-10-24T09:53:38.487Z,84.1
2015-10-24T09:54:38.428Z,84.5
2015-10-24T09:55:38.384Z,84.4
2015-10-24T09:56:38.323Z,84.2
2015-10-24T09:57:38.295Z,84
2015-10-24T09:58:38.220Z,84.2
2015-10-24T09:59:38.175Z,83.7
2015-10-24T10:00:38.117Z,84
2015-10-24T10:01:38.291Z,84.4
2015-10-24T10:02:38.012Z,84.4
2015-10-24T10:03:37.953Z,83.7
2015-10-24T10:04:37.892Z,83.3
2015-10-24T10:05:37.848Z,83.9
2015-10-24T10:06:37.788Z,84
2015-10-24T10:07:37.744Z,84
2015-10-24T10:08:37.684Z,84.2
2015-10-24T10:09:37.624Z,83.8
2015-10-24T10:10:37.580Z,84
2015-10-24T10:11:37.505Z,83.6
2015-10-24T10:12:37.461Z,84.2
2015-10-24T10:13:37.401Z,84.3
2015-10-24T10:14:37.357Z,83.4
2015-10-24T10:15:37.297Z,83.6
2015-10-24T10:16:37.237Z,82.5
2015-10-24T10:17:37.208Z,83.3
2015-10-24T10:18:37.368Z,83.4
2015-10-24T10:19:37.074Z,82.7
2015-10-24T10:20:37.029Z,82.7
2015-10-24T10:21:36.985Z,82.7
2015-10-24T10:22:36.910Z,81.2
2015-10-24T10:23:36.724Z,82.4
2015-10-24T10:24:36.822Z,82
2015-10-24T10:25:36.762Z,81.8
2015-10-24T10:26:36.718Z,82.1
2015-10-24T10:27:36.673Z,81.6
2015-10-24T10:28:36.613Z,82.1
2015-10-24T10:29:36.554Z,81.3
2015-10-24T10:30:36.494Z,81.3
2015-10-24T10:31:36.434Z,81.7
2015-10-24T10:32:36.374Z,81.5
2015-10-24T10:33:36.331Z,81.3
2015-10-24T10:34:36.270Z,82.2
2015-10-24T10:35:36.211Z,82.4
2015-10-24T10:36:36.166Z,82.5
2015-10-24T10:37:36.122Z,82
2015-10-24T10:38:36.062Z,81.3
2015-10-24T10:39:36.003Z,80.7
2015-10-24T10:40:35.959Z,81.6
2015-10-24T10:41:35.898Z,81.5
2015-10-24T10:42:35.854Z,81.6
2015-10-24T10:43:36.028Z,81.6
2015-10-24T10:44:35.750Z,81.2
2015-10-24T10:45:35.691Z,81.4
2015-10-24T10:46:35.631Z,80.3
2015-10-24T10:47:35.586Z,80.8
2015-10-24T10:48:35.527Z,80.5
2015-10-24T10:49:35.467Z,80.9
2015-10-24T10:50:35.422Z,81.2
2015-10-24T10:51:35.363Z,81.4
2015-10-24T10:52:35.302Z,80.8
2015-10-24T10:53:35.274Z,80.8
2015-10-24T10:54:35.215Z,80.5
2015-10-24T10:55:35.152Z,80.7
2015-10-24T10:56:35.093Z,80.3
2015-10-24T10:57:35.033Z,79.6
2015-10-24T10:58:34.989Z,80.4
2015-10-24T10:59:34.944Z,80.7
2015-10-24T11:00:34.728Z,80.7
2015-10-24T11:01:34.824Z,80.9
2015-10-24T11:02:34.781Z,79.8
2015-10-24T11:03:34.955Z,80.3
2015-10-24T11:04:34.677Z,80
2015-10-24T11:05:34.618Z,80.5
2015-10-24T11:06:34.557Z,80.9
2015-10-24T11:07:34.513Z,81
2015-10-24T11:08:34.454Z,81.8
2015-10-24T11:09:34.409Z,81.6
2015-10-24T11:10:34.349Z,80.9
2015-10-24T11:11:34.305Z,80
2015-10-24T11:12:34.245Z,79.5
2015-10-24T11:13:34.200Z,80.1
2015-10-24T11:14:34.141Z,80.1
2015-10-24T11:15:34.081Z,80.9
2015-10-24T11:16:34.037Z,80.7
2015-10-24T11:17:33.977Z,80.9
2015-10-24T11:18:33.917Z,80.6
2015-10-24T11:19:34.108Z,79.4
2015-10-24T11:20:33.813Z,79.7
2015-10-24T11:21:33.770Z,80.7
2015-10-24T11:22:33.710Z,79.4
2015-10-24T11:23:33.666Z,79.1
2015-10-24T11:24:33.605Z,79.3
2015-10-24T11:25:33.561Z,78.8
2015-10-24T11:26:33.502Z,79
2015-10-24T11:27:33.458Z,77.7
2015-10-24T11:28:33.397Z,78.4
2015-10-24T11:29:33.337Z,78.5
2015-10-24T11:30:33.293Z,78.2
2015-10-24T11:31:33.234Z,78.8
2015-10-24T11:32:33.190Z,78.5
2015-10-24T11:33:33.145Z,78.8
2015-10-24T11:34:33.085Z,79.1
2015-10-24T11:35:33.026Z,78
2015-10-24T11:36:32.981Z,78.8
2015-10-24T11:37:32.938Z,78.5
2015-10-24T11:38:32.878Z,78.4
2015-10-24T11:39:32.818Z,77.3
2015-10-24T11:40:32.773Z,76
2015-10-24T11:41:32.714Z,78
2015-10-24T11:42:32.670Z,78.3
2015-10-24T11:43:32.610Z,77.1
2015-10-24T11:44:32.565Z,78.1
2015-10-24T11:45:32.506Z,78
2015-10-24T11:46:32.462Z,78.1
2015-10-24T11:47:32.402Z,76.7
2015-10-24T11:48:32.342Z,77.2
2015-10-24T11:49:32.298Z,77.4
2015-10-24T11:50:32.238Z,78
2015-10-24T11:51:32.178Z,78.1
2015-10-24T11:52:32.134Z,78.1
2015-10-24T11:53:32.090Z,77.3
2015-10-24T11:54:32.030Z,77.6
2015-10-24T11:55:31.970Z,78.1
2015-10-24T11:56:31.927Z,77.8
2015-10-24T11:57:31.867Z,77.4
2015-10-24T11:58:31.822Z,77.6
2015-10-24T11:59:31.763Z,78.1
2015-10-24T12:00:31.719Z,77.6
2015-10-24T12:01:31.658Z,78
2015-10-24T12:02:31.614Z,78.2
2015-10-24T12:03:31.789Z,78.5
2015-10-24T12:04:31.495Z,78.6
2015-10-24T12:05:31.451Z,78.4
2015-10-24T12:06:31.391Z,78.4
2015-10-24T12:07:31.346Z,78.1
2015-10-24T12:08:31.287Z,78.3
2015-10-24T12:09:31.242Z,78.7
2015-10-24T12:10:31.182Z,77.5
2015-10-24T12:11:31.138Z,78.2
2015-10-24T12:12:31.079Z,79.2
2015-10-24T12:13:31.019Z,78.1
2015-10-24T12:14:30.975Z,77.3
2015-10-24T12:15:30.931Z,76.9
2015-10-24T12:16:30.871Z,77.7
2015-10-24T12:17:30.812Z,78
2015-10-24T12:18:30.767Z,78.3
2015-10-24T12:19:30.723Z,78
2015-10-24T12:20:30.648Z,78.3
2015-10-24T12:21:30.603Z,78.3
2015-10-24T12:22:30.543Z,78.3
2015-10-24T12:23:30.499Z,78.1
2015-10-24T12:24:30.440Z,77.9
2015-10-24T12:25:30.395Z,78.5
2015-10-24T12:26:30.336Z,78.9
2015-10-24T12:27:30.292Z,77.2
2015-10-24T12:28:30.231Z,77
2015-10-24T12:29:30.172Z,77.8
2015-10-24T12:30:30.128Z,78
2015-10-24T12:31:29.333Z,77.9
2015-10-24T12:32:30.024Z,77.9
2015-10-24T12:33:29.964Z,78
2015-10-24T12:34:29.904Z,77.8
2015-10-24T12:35:29.876Z,77.7
2015-10-24T12:36:29.800Z,77.4
2015-10-24T12:37:29.741Z,78.2
2015-10-24T12:38:29.696Z,78.2
2015-10-24T12:39:29.637Z,77.1
2015-10-24T12:40:29.592Z,77
2015-10-24T12:41:29.549Z,77.3
2015-10-24T12:42:29.488Z,78
2015-10-24T12:43:29.430Z,78.5
2015-10-24T12:44:29.385Z,78.4
2015-10-24T12:45:29.325Z,78.6
2015-10-24T12:46:29.280Z,78.5
2015-10-24T12:47:29.221Z,79
2015-10-24T12:48:29.161Z,77.7
2015-10-24T12:49:29.117Z,77.2
2015-10-24T12:50:29.057Z,77
2015-10-24T12:51:29.013Z,77
2015-10-24T12:52:28.954Z,77.2
2015-10-24T12:53:28.909Z,77.1
2015-10-24T12:54:28.834Z,76.6
2015-10-24T12:55:28.790Z,76.9
2015-10-24T12:56:28.730Z,78.1
2015-10-24T12:57:28.670Z,79
2015-10-24T12:58:28.626Z,78.9
2015-10-24T12:59:28.579Z,78.4
2015-10-24T13:00:28.518Z,78.2
2015-10-24T13:01:28.460Z,78.8
2015-10-24T13:02:28.416Z,78.7
2015-10-24T13:03:28.371Z,78.4
2015-10-24T13:04:28.312Z,78.9
2015-10-24T13:05:28.252Z,79
2015-10-24T13:06:28.223Z,78.4
2015-10-24T13:07:28.162Z,79
2015-10-24T13:08:28.337Z,79.3
2015-10-24T13:09:28.044Z,79.5
2015-10-24T13:10:27.984Z,79.3
2015-10-24T13:11:27.939Z,79
2015-10-24T13:12:27.880Z,78.9
2015-10-24T13:13:27.836Z,78.7
2015-10-24T13:14:27.776Z,78.3
2015-10-24T13:15:29.513Z,77.6
2015-10-24T13:16:30.625Z,76.5
2015-10-24T13:17:29.972Z,75.8
2015-10-24T13:18:27.568Z,75.6
2015-10-24T13:19:27.524Z,74.6
2015-10-24T13:20:28.558Z,73.4
2015-10-24T13:21:27.420Z,74.3
2015-10-24T13:22:27.361Z,74.2
2015-10-24T13:23:27.317Z,73.8